Time;durP1;ratioP1;P1;durP2;ratioP2;P2;SDS_P1;SDS_P2;PMS_P1;PMS_P2;Temp;Humidity;BMP_temperature;BMP_pressure;BME280_temperature;BME280_humidity;BME280_pressure;Samples;Min_cycle;Max_cycle;Signal;HPM_P1;HPM_P2
2022/10/22 07:47:50;;;;;;;0.77;0.70;;;;;;;14.13;76.05;96726.91;5955389;23;20093;-82
2022/10/22 07:50:28;;;;;;;2.22;0.70;;;;;;;14.17;75.81;96730.75;4900903;29;20081;-80
2022/10/22 07:53:10;;;;;;;2.45;0.90;;;;;;;14.23;76.01;96734.34;4919791;23;20499;-78
2022/10/22 07:55:37;;;;;;;2.63;0.93;;;;;;;14.27;75.70;96732.16;4916445;29;20407;-79
2022/10/22 07:58:05;;;;;;;2.17;0.90;;;;;;;14.29;75.28;96727.50;4916425;29;20032;-79
2022/10/22 08:00:32;;;;;;;1.35;0.60;;;;;;;14.33;75.26;96742.66;4920796;29;20096;-79
2022/10/22 08:03:01;;;;;;;1.48;0.75;;;;;;;14.38;75.18;96734.16;4919866;29;20048;-79
2022/10/22 08:05:29;;;;;;;2.53;0.68;;;;;;;14.45;75.00;96742.84;4921367;29;20060;-79
2022/10/22 08:07:57;;;;;;;3.75;0.73;;;;;;;14.53;75.23;96736.59;4921723;29;20033;-79
2022/10/22 08:10:25;;;;;;;0.98;0.70;;;;;;;14.62;75.27;96746.69;4920657;29;20125;-79
2022/10/22 08:12:52;;;;;;;2.88;0.77;;;;;;;14.71;74.52;96744.66;4919859;29;20104;-79
2022/10/22 08:15:22;;;;;;;1.08;0.63;;;;;;;14.86;74.14;96741.03;4914125;29;20068;-77
2022/10/22 08:17:49;;;;;;;1.10;0.57;;;;;;;15.04;73.27;96749.03;4907373;29;20064;-78
2022/10/22 08:20:19;;;;;;;4.03;0.50;;;;;;;15.31;71.39;96741.91;4912361;29;20076;-78
2022/10/22 08:22:47;;;;;;;3.00;0.30;;;;;;;15.56;70.68;96751.69;4902232;29;20049;-78
2022/10/22 08:25:16;;;;;;;4.55;0.47;;;;;;;15.74;70.38;96749.22;4912432;29;20036;-79
2022/10/22 08:27:45;;;;;;;1.35;0.25;;;;;;;15.92;69.77;96745.88;4976772;23;20027;-81
2022/10/22 08:30:14;;;;;;;0.45;0.35;;;;;;;16.19;70.03;96757.03;4917732;29;20104;-78
2022/10/22 08:32:42;;;;;;;0.93;0.55;;;;;;;16.57;69.77;96750.84;4910802;29;20048;-80
2022/10/22 08:35:11;;;;;;;0.70;0.50;;;;;;;16.92;67.85;96754.84;4911730;29;20131;-78
2022/10/22 08:37:44;;;;;;;1.98;0.40;;;;;;;17.10;66.77;96746.97;4900978;29;20111;-78
2022/10/22 08:40:21;;;;;;;2.50;0.60;;;;;;;17.24;66.33;96752.88;4918890;29;20059;-79
2022/10/22 08:43:06;;;;;;;0.93;0.50;;;;;;;17.54;65.24;96747.66;4912886;29;20052;-78
2022/10/22 08:45:40;;;;;;;6.22;0.70;;;;;;;18.33;63.12;96745.75;4903603;29;20438;-78
2022/10/22 08:48:22;;;;;;;0.40;0.40;;;;;;;19.28;59.96;96745.75;4903304;29;20048;-78
2022/10/22 08:50:54;;;;;;;3.70;0.82;;;;;;;20.23;57.71;96751.53;4904469;29;20079;-79
2022/10/22 08:53:30;;;;;;;2.30;0.50;;;;;;;21.16;54.45;96743.91;4904643;29;20438;-79
2022/10/22 08:55:58;;;;;;;2.63;0.80;;;;;;;22.08;52.31;96750.28;4904811;29;20052;-79
2022/10/22 08:58:32;;;;;;;1.13;0.55;;;;;;;22.85;49.78;96761.56;4910271;29;20514;-79
2022/10/22 09:01:02;;;;;;;2.33;0.60;;;;;;;23.62;47.76;96768.09;4893761;29;20049;-78
2022/10/22 09:03:38;;;;;;;1.17;0.40;;;;;;;24.26;45.95;96776.78;4883746;29;20053;-79
2022/10/22 09:06:11;;;;;;;1.20;0.40;;;;;;;24.39;44.42;96770.94;4885008;29;20515;-78
2022/10/22 09:08:43;;;;;;;2.47;0.55;;;;;;;24.52;44.87;96769.63;4883750;29;20069;-77
2022/10/22 09:11:22;;;;;;;3.40;0.50;;;;;;;24.69;45.29;96780.03;4899819;29;20056;-79
2022/10/22 09:13:52;;;;;;;0.88;0.40;;;;;;;24.33;45.12;96779.19;4900046;29;20071;-80
2022/10/22 09:16:25;;;;;;;4.22;0.40;;;;;;;23.92;45.62;96765.81;4900017;29;20530;-79
2022/10/22 09:19:03;;;;;;;0.88;0.40;;;;;;;24.24;47.86;96776.25;4899866;29;20053;-81
2022/10/22 09:21:43;;;;;;;0.50;0.30;;;;;;;25.71;42.25;96770.97;4899075;29;20056;-77
2022/10/22 09:24:16;;;;;;;1.02;0.45;;;;;;;27.29;38.91;96785.09;4899948;29;20067;-79
2022/10/22 09:26:44;;;;;;;4.85;0.65;;;;;;;28.47;36.47;96774.66;4900464;29;20052;-78
2022/10/22 09:29:18;;;;;;;4.35;0.85;;;;;;;29.41;34.34;96781.69;4899607;29;20060;-78
2022/10/22 09:31:45;;;;;;;1.15;0.30;;;;;;;30.19;34.57;96777.06;4901135;29;20076;-78
2022/10/22 09:34:15;;;;;;;2.33;0.50;;;;;;;29.86;35.60;96773.00;4900781;29;20053;-79
2022/10/22 09:36:42;;;;;;;0.55;0.38;;;;;;;30.39;35.58;96773.16;4899798;29;20521;-78
2022/10/22 09:39:25;;;;;;;0.43;0.20;;;;;;;31.47;33.77;96778.50;4898996;29;20057;-78
2022/10/22 09:41:53;;;;;;;0.30;0.30;;;;;;;32.26;31.31;96771.34;4900239;29;20070;-78
2022/10/22 09:44:21;;;;;;;7.00;3.13;;;;;;;32.76;30.92;96783.56;4900787;29;20056;-83
2022/10/22 09:46:49;;;;;;;10.50;5.68;;;;;;;32.50;31.03;96773.56;4903503;29;20108;-83
2022/10/22 09:49:19;;;;;;;4.22;0.30;;;;;;;31.92;31.48;96782.88;4902967;29;20056;-82
2022/10/22 09:51:53;;;;;;;0.63;0.30;;;;;;;31.50;31.45;96788.66;4904781;29;20053;-82
2022/10/22 09:54:24;;;;;;;2.00;0.77;;;;;;;30.86;34.18;96790.91;4902313;29;20430;-80
2022/10/22 09:56:55;;;;;;;8.48;2.42;;;;;;;30.20;34.80;96788.66;4901589;29;20049;-79
2022/10/22 09:59:30;;;;;;;3.00;0.20;;;;;;;29.70;34.53;96800.19;4901580;29;20414;-79
2022/10/22 10:02:02;;;;;;;1.65;1.55;;;;;;;29.17;36.20;96795.31;4901863;29;20062;-81
2022/10/22 10:04:49;;;;;;;0.30;0.25;;;;;;;29.15;35.53;96787.53;4901101;29;20053;-83
2022/10/22 10:07:18;;;;;;;1.98;0.35;;;;;;;29.42;35.16;96791.31;4899941;29;20049;-79
2022/10/22 10:09:48;;;;;;;0.70;0.40;;;;;;;29.61;34.62;96806.53;4897101;29;20530;-79
2022/10/22 10:12:33;;;;;;;1.20;0.30;;;;;;;30.78;33.30;96795.88;4898264;29;20519;-79
2022/10/22 10:15:15;;;;;;;1.05;0.20;;;;;;;32.32;31.24;96801.66;4898834;29;20503;-78
2022/10/22 10:17:53;;;;;;;0.52;0.40;;;;;;;33.86;28.18;96808.09;4897988;29;20518;-77
2022/10/22 10:20:34;;;;;;;0.40;0.22;;;;;;;35.22;27.42;96802.16;4898572;29;20053;-79
2022/10/22 10:23:08;;;;;;;0.47;0.35;;;;;;;36.43;24.69;96803.53;4898148;29;20053;-79
2022/10/22 10:25:52;;;;;;;1.33;0.40;;;;;;;37.59;22.94;96803.50;4898341;29;20045;-79
2022/10/22 10:28:30;;;;;;;0.73;0.43;;;;;;;38.52;22.15;96810.19;4884183;29;20048;-78
2022/10/22 10:31:10;;;;;;;0.55;0.20;;;;;;;39.35;21.76;96807.78;4891652;29;20499;-78
2022/10/22 10:33:47;;;;;;;1.48;0.32;;;;;;;40.03;21.78;96818.97;4896982;29;20048;-75
2022/10/22 10:36:22;;;;;;;2.05;0.40;;;;;;;40.42;20.85;96812.47;4898007;29;20427;-80
2022/10/22 10:38:57;;;;;;;2.28;0.40;;;;;;;40.12;20.38;96816.75;4897569;29;20128;-78
2022/10/22 10:41:38;;;;;;;0.90;0.30;;;;;;;37.95;23.03;96804.28;4897794;29;20055;-72
2022/10/22 10:44:20;;;;;;;0.47;0.20;;;;;;;35.76;25.20;96808.53;4898290;29;20048;-78
2022/10/22 10:46:57;;;;;;;3.25;0.43;;;;;;;34.19;26.34;96805.50;4901238;29;20064;-81
2022/10/22 10:49:26;;;;;;;1.20;0.30;;;;;;;33.09;28.38;96805.41;4901323;29;20418;-80
2022/10/22 10:52:01;;;;;;;0.25;0.25;;;;;;;32.32;30.33;96802.47;4899752;29;20527;-82
2022/10/22 10:54:42;;;;;;;1.65;0.10;;;;;;;31.73;31.13;96808.25;4899143;29;20053;-80
2022/10/22 10:57:25;;;;;;;0.30;0.25;;;;;;;31.28;32.27;96796.81;4899445;29;20558;-79
2022/10/22 11:00:02;;;;;;;0.52;0.10;;;;;;;30.85;32.52;96794.66;4899826;29;20061;-81
2022/10/22 11:02:50;;;;;;;1.02;0.10;;;;;;;30.54;31.85;96796.19;4900011;29;20052;-80
2022/10/22 11:05:30;;;;;;;0.10;0.10;;;;;;;30.28;33.52;96798.69;4899595;29;20053;-80
2022/10/22 11:08:01;;;;;;;0.30;0.20;;;;;;;30.09;33.18;96789.97;4898435;29;20060;-78
2022/10/22 11:10:34;;;;;;;0.75;0.10;;;;;;;29.91;34.45;96784.44;4898115;29;20044;-80
2022/10/22 11:13:11;;;;;;;0.30;0.20;;;;;;;29.71;31.66;96795.63;4895729;29;20056;-80
2022/10/22 11:15:40;;;;;;;0.65;0.22;;;;;;;29.56;32.50;96789.44;4891291;29;20052;-81
2022/10/22 11:18:17;;;;;;;1.17;0.45;;;;;;;29.76;35.20;96787.47;4898009;29;20068;-80
2022/10/22 11:20:53;;;;;;;0.90;0.55;;;;;;;30.38;34.06;96792.28;4898875;29;20051;-80
2022/10/22 11:23:27;;;;;;;0.63;0.30;;;;;;;31.33;30.72;96793.97;4899271;29;20060;-80
2022/10/22 11:25:55;;;;;;;1.55;0.20;;;;;;;32.21;29.53;96790.41;4898764;29;20150;-80
2022/10/22 11:28:27;;;;;;;0.90;0.28;;;;;;;32.84;28.73;96798.94;4898964;29;20053;-80
2022/10/22 11:31:01;;;;;;;1.90;0.40;;;;;;;33.38;28.79;96801.16;4900061;29;20075;-80
2022/10/22 11:33:34;;;;;;;0.50;0.20;;;;;;;33.86;27.45;96791.88;4900583;29;20049;-79
2022/10/22 11:36:04;;;;;;;1.17;0.30;;;;;;;34.53;26.71;96792.00;4899709;29;20060;-80
2022/10/22 11:38:34;;;;;;;0.63;0.30;;;;;;;35.26;25.99;96789.53;4880699;29;20091;-79
2022/10/22 11:41:05;;;;;;;1.90;0.40;;;;;;;35.91;24.07;96791.56;4895853;29;20052;-80
2022/10/22 11:43:52;;;;;;;3.67;0.20;;;;;;;36.04;24.42;96798.53;4899308;29;20060;-79
2022/10/22 11:46:40;;;;;;;0.45;0.30;;;;;;;36.18;25.20;96794.69;4896863;29;20044;-80
2022/10/22 11:49:19;;;;;;;2.75;0.50;;;;;;;36.34;24.30;96795.53;4896749;29;20495;-80
2022/10/22 11:51:47;;;;;;;0.30;0.25;;;;;;;36.26;23.77;96799.19;4891023;29;20057;-80
2022/10/22 11:54:30;;;;;;;0.45;0.30;;;;;;;36.03;24.94;96794.22;4898432;29;20060;-80
2022/10/22 11:57:17;;;;;;;0.60;0.20;;;;;;;35.48;24.18;96798.34;4895467;29;20063;-80
2022/10/22 11:59:49;;;;;;;0.60;0.30;;;;;;;34.37;25.99;96795.31;4887712;29;20422;-80
2022/10/22 12:02:31;;;;;;;1.10;0.28;;;;;;;33.67;26.15;96799.63;4898130;29;20056;-80
2022/10/22 12:05:19;;;;;;;0.40;0.13;;;;;;;32.49;27.54;96790.06;4902504;29;20108;-80
2022/10/22 12:07:53;;;;;;;1.73;0.30;;;;;;;31.14;29.32;96786.13;4902900;29;20063;-79
2022/10/22 12:10:24;;;;;;;0.55;0.20;;;;;;;30.21;30.80;96790.22;4900112;29;20068;-80
2022/10/22 12:12:57;;;;;;;1.27;0.45;;;;;;;29.53;33.15;96789.22;4902435;29;20067;-80
2022/10/22 12:15:27;;;;;;;1.73;0.20;;;;;;;28.92;32.93;96791.13;4902176;29;20055;-80
2022/10/22 12:18:00;;;;;;;3.28;0.30;;;;;;;28.42;34.12;96778.22;4901801;29;20438;-81
2022/10/22 12:20:29;;;;;;;0.20;0.20;;;;;;;28.03;34.50;96774.00;4901607;29;20121;-80
2022/10/22 12:22:58;;;;;;;1.60;0.30;;;;;;;27.57;34.78;96771.88;4901962;29;20060;-80
2022/10/22 12:25:30;;;;;;;0.75;0.15;;;;;;;27.12;35.87;96772.09;4894225;29;20055;-79
2022/10/22 12:28:02;;;;;;;0.52;0.32;;;;;;;26.76;36.63;96776.19;4897141;29;20056;-80
2022/10/22 12:30:34;;;;;;;2.17;0.30;;;;;;;26.46;37.14;96772.69;4901661;29;20113;-78
2022/10/22 12:33:04;;;;;;;0.75;0.20;;;;;;;26.21;38.15;96771.78;4900643;29;20057;-78
2022/10/22 12:35:34;;;;;;;0.93;0.22;;;;;;;26.05;38.76;96775.66;4901480;29;20045;-78
2022/10/22 12:38:10;;;;;;;2.05;0.22;;;;;;;25.90;39.61;96761.28;4900405;29;20060;-79
2022/10/22 12:40:40;;;;;;;0.55;0.38;;;;;;;25.79;39.56;96772.28;4901233;29;20049;-80
2022/10/22 12:43:17;;;;;;;3.42;0.20;;;;;;;25.63;39.99;96767.00;4900676;29;20052;-76
2022/10/22 12:45:48;;;;;;;0.40;0.20;;;;;;;25.49;40.27;96766.81;4900361;29;20055;-79
2022/10/22 12:48:18;;;;;;;6.70;0.57;;;;;;;25.35;40.08;96759.66;4900717;29;20053;-80
2022/10/22 12:50:49;;;;;;;0.30;0.30;;;;;;;25.22;41.65;96761.03;4901232;29;20294;-81
2022/10/22 12:53:19;;;;;;;2.10;0.85;;;;;;;25.06;40.68;96766.38;4900574;29;20056;-81
2022/10/22 12:55:49;;;;;;;1.30;0.30;;;;;;;24.93;40.29;96764.28;4900490;29;20052;-80
2022/10/22 12:58:20;;;;;;;0.32;0.17;;;;;;;24.79;42.18;96763.22;4900238;29;20059;-80
2022/10/22 13:00:56;;;;;;;1.27;0.20;;;;;;;24.71;42.64;96763.75;4900459;29;20049;-78
2022/10/22 13:03:30;;;;;;;1.83;0.30;;;;;;;24.62;43.61;96769.66;4900012;29;20132;-79
2022/10/22 13:06:12;;;;;;;3.22;0.20;;;;;;;24.49;42.55;96764.84;4900241;29;20060;-79
2022/10/22 13:08:40;;;;;;;1.60;0.40;;;;;;;24.38;43.35;96763.19;4899579;29;20056;-78
2022/10/22 13:11:10;;;;;;;3.75;0.30;;;;;;;24.29;42.57;96764.78;4900991;29;20443;-78
2022/10/22 13:13:44;;;;;;;0.30;0.30;;;;;;;24.20;42.25;96762.66;4899877;29;20045;-77
2022/10/22 13:16:20;;;;;;;1.02;0.40;;;;;;;24.13;43.24;96762.13;4898003;29;20052;-77
2022/10/22 13:18:48;;;;;;;1.42;0.70;;;;;;;24.07;42.61;96763.16;4897697;29;20104;-77
2022/10/22 13:21:26;;;;;;;1.02;0.30;;;;;;;24.00;41.95;96759.97;4897931;29;20060;-77
2022/10/22 13:23:56;;;;;;;2.30;0.52;;;;;;;23.95;41.27;96754.63;4899182;29;20068;-77
2022/10/22 13:26:29;;;;;;;1.27;0.55;;;;;;;23.89;41.86;96753.81;4899429;29;20057;-77
2022/10/22 13:28:59;;;;;;;0.57;0.30;;;;;;;23.86;40.45;96754.34;4899285;29;20064;-77
2022/10/22 13:31:32;;;;;;;0.85;0.20;;;;;;;23.81;40.46;96765.78;4899866;29;20055;-78
2022/10/22 13:34:05;;;;;;;7.05;2.58;;;;;;;23.77;40.63;96753.25;4899583;29;20052;-79
2022/10/22 13:36:38;;;;;;;23.65;18.67;;;;;;;23.72;41.45;96756.66;4899947;29;20053;-81
2022/10/22 13:39:06;;;;;;;2.97;1.33;;;;;;;23.68;41.37;96754.78;4898867;29;20052;-80
2022/10/22 13:41:39;;;;;;;1.67;1.00;;;;;;;23.59;41.13;96763.31;4899450;29;20108;-81
2022/10/22 13:44:11;;;;;;;0.90;0.20;;;;;;;23.48;41.84;96758.97;4899839;29;20502;-78
2022/10/22 13:46:42;;;;;;;3.58;0.68;;;;;;;23.42;42.20;96763.50;4899587;29;20511;-79
2022/10/22 13:49:14;;;;;;;0.47;0.30;;;;;;;23.35;41.74;96762.94;4882876;29;20053;-81
2022/10/22 13:51:43;;;;;;;1.42;0.40;;;;;;;23.30;42.54;96759.44;4899318;29;20500;-82
2022/10/22 13:54:15;;;;;;;1.35;0.40;;;;;;;23.21;42.37;96767.91;4931291;23;20430;-80
2022/10/22 13:56:43;;;;;;;0.93;0.43;;;;;;;23.14;42.33;96759.38;4906383;29;20063;-81
2022/10/22 13:59:13;;;;;;;1.35;0.47;;;;;;;23.07;41.37;96756.13;4922862;29;20059;-80
2022/10/22 14:01:46;;;;;;;0.55;0.22;;;;;;;23.01;43.99;96757.97;4920455;29;20071;-80
2022/10/22 14:04:14;;;;;;;0.68;0.30;;;;;;;23.00;44.93;96758.22;4919190;29;20499;-81
2022/10/22 14:06:42;;;;;;;2.17;0.30;;;;;;;22.96;44.55;96755.25;4922074;29;20056;-80
2022/10/22 14:09:15;;;;;;;1.45;0.35;;;;;;;22.87;43.91;96759.47;4922947;29;20048;-80
2022/10/22 14:11:42;;;;;;;1.70;0.35;;;;;;;22.82;43.37;96762.84;4920708;29;20510;-80
2022/10/22 14:14:23;;;;;;;0.55;0.20;;;;;;;22.79;43.60;96762.59;5171587;23;20040;-79
2022/10/22 14:17:17;;;;;;;1.70;0.40;;;;;;;22.75;44.25;96764.16;4941760;29;20036;-78
2022/10/22 15:38:52;;;;;;;3.67;0.52;;;;;;;21.23;48.44;96771.09;4932666;29;20048;-79
2022/10/22 15:41:39;;;;;;;2.03;0.57;;;;;;;21.10;46.71;96768.75;4924197;29;20104;-78
2022/10/22 15:44:43;;;;;;;1.17;0.70;;;;;;;20.98;49.57;96774.19;4941503;29;20042;-79
2022/10/22 15:50:15;;;;;;;1.08;0.90;;;;;;;20.75;47.41;96775.16;5230971;23;20039;-80
2022/10/22 15:52:48;;;;;;;1.77;0.70;;;;;;;20.67;48.32;96784.34;4936867;29;20050;-79
2022/10/22 15:55:17;;;;;;;2.03;0.90;;;;;;;20.62;50.12;96780.78;4940320;29;20056;-78
2022/10/22 15:57:53;;;;;;;2.55;0.65;;;;;;;20.54;49.81;96782.78;4939402;29;20065;-81
2022/10/22 16:00:30;;;;;;;1.33;0.80;;;;;;;20.46;49.46;96783.16;4939289;29;20121;-79
2022/10/22 16:03:00;;;;;;;2.58;0.75;;;;;;;20.39;49.53;96787.81;4901622;29;20059;-79
2022/10/22 16:05:53;;;;;;;2.90;0.87;;;;;;;20.31;49.54;96796.97;4913759;29;20044;-79
2022/10/22 16:08:25;;;;;;;7.88;2.90;;;;;;;20.24;49.42;96795.50;4939232;29;20080;-78
2022/10/22 16:11:01;;;;;;;11.77;4.37;;;;;;;20.19;49.73;96806.03;4920614;29;20052;-78
2022/10/22 16:13:42;;;;;;;9.27;4.22;;;;;;;20.12;50.44;96799.03;4934752;29;20789;-80
2022/10/22 16:16:16;;;;;;;8.25;3.55;;;;;;;20.04;50.62;96793.31;4924941;29;20056;-78
2022/10/22 16:18:44;;;;;;;7.35;3.20;;;;;;;19.92;51.20;96798.66;4927863;29;20093;-80
2022/10/22 16:21:20;;;;;;;5.68;2.70;;;;;;;19.78;51.99;96792.03;4939472;29;20040;-81
2022/10/22 16:23:59;;;;;;;10.25;3.67;;;;;;;19.67;52.07;96791.00;4924055;29;20038;-79
2022/10/22 16:29:25;;;;;;;7.40;3.15;;;;;;;19.43;52.92;96790.25;4939809;29;19947;-79
2022/10/22 16:35:07;;;;;;;9.48;3.58;;;;;;;19.20;53.43;96796.34;4919590;29;20050;-79
2022/10/22 16:40:53;;;;;;;5.70;2.15;;;;;;;18.94;53.96;96807.19;5320910;23;20068;-80
2022/10/22 16:43:31;;;;;;;4.68;1.77;;;;;;;18.84;54.40;96812.22;4939216;29;20122;-79
2022/10/22 16:46:26;;;;;;;3.17;1.30;;;;;;;18.72;54.63;96804.28;4939049;29;20111;-79
2022/10/22 16:49:04;;;;;;;4.95;1.70;;;;;;;18.63;54.40;96803.00;4940446;29;20047;-79
2022/10/22 16:51:48;;;;;;;4.18;2.30;;;;;;;18.55;54.59;96813.09;4926014;29;20054;-79
2022/10/22 16:54:34;;;;;;;4.25;2.00;;;;;;;18.45;54.94;96806.50;4943181;29;20052;-79
2022/10/22 16:57:14;;;;;;;5.50;2.30;;;;;;;18.33;55.19;96814.41;4943068;29;20075;-80
2022/10/22 16:59:59;;;;;;;6.50;2.38;;;;;;;18.21;55.74;96812.78;4940744;29;20080;-79
2022/10/22 17:02:39;;;;;;;5.20;1.40;;;;;;;18.11;55.99;96819.41;4940865;29;20076;-80
2022/10/22 17:05:19;;;;;;;7.75;2.25;;;;;;;18.05;56.59;96816.84;4921672;29;20652;-79
2022/10/22 17:07:57;;;;;;;7.57;1.92;;;;;;;18.00;56.57;96825.44;4932175;29;20067;-80
2022/10/22 17:10:35;;;;;;;8.20;4.70;;;;;;;17.90;56.46;96830.44;4941571;29;20056;-79
2022/10/22 17:13:13;;;;;;;6.85;2.95;;;;;;;17.82;56.46;96836.84;4941285;29;20083;-79
2022/10/22 17:15:55;;;;;;;5.63;3.30;;;;;;;17.74;56.89;96831.03;4924651;29;20123;-79
2022/10/22 17:18:33;;;;;;;;;;;;;;;17.75;56.64;96822.88;4941021;29;20063;-79
2022/10/22 17:21:06;;;;;;;8.13;2.45;;;;;;;17.67;56.96;96831.09;4940892;29;19943;-79
2022/10/22 17:23:41;;;;;;;6.20;2.28;;;;;;;17.62;57.01;96838.84;4940830;29;20055;-80
2022/10/22 17:26:32;;;;;;;4.00;3.00;;;;;;;17.59;57.71;96845.38;4940543;29;20060;-79
2022/10/22 17:29:08;;;;;;;7.43;2.33;;;;;;;17.53;57.58;96848.91;4940502;29;20079;-81
2022/10/22 17:35:18;;;;;;;5.35;2.00;;;;;;;17.54;58.40;96863.72;4928788;23;20059;-79
2022/10/22 17:37:58;;;;;;;8.13;3.13;;;;;;;17.53;58.47;96856.81;4922446;29;20031;-79
2022/10/22 17:40:33;;;;;;;14.35;4.78;;;;;;;17.51;58.47;96861.50;4921897;29;20053;-81
2022/10/22 17:43:08;;;;;;;6.72;3.80;;;;;;;17.47;58.52;96847.13;4914768;29;20041;-79
2022/10/22 17:45:45;;;;;;;7.57;3.33;;;;;;;17.42;58.57;96849.63;4900737;29;20061;-80
2022/10/22 18:40:59;;;;;;;5.38;2.33;;;;;;;16.52;61.02;96881.56;3501063;23;20039;-82
2022/10/22 19:20:59;;;;;;;4.10;2.60;;;;;;;15.81;64.84;96860.47;4938792;29;20055;-80
2022/10/22 20:24:41;;;;;;;6.70;2.55;;;;;;;15.62;66.59;96859.47;5036762;23;20084;-80
2022/10/22 22:29:28;;;;;;;6.18;3.47;;;;;;;15.25;71.15;96848.66;4915441;29;20052;-79
2022/10/22 22:31:56;;;;;;;6.32;3.15;;;;;;;15.24;70.74;96844.41;4918228;29;20052;-79
2022/10/22 22:34:23;;;;;;;4.53;3.45;;;;;;;15.23;70.81;96847.25;4917997;29;20052;-79
2022/10/22 22:36:51;;;;;;;7.88;3.38;;;;;;;15.20;70.85;96837.94;4918197;29;20052;-78
2022/10/22 22:39:21;;;;;;;4.75;3.08;;;;;;;15.16;70.88;96834.13;4899563;29;20052;-79
2022/10/22 22:41:49;;;;;;;3.35;2.70;;;;;;;15.15;70.73;96829.88;4899108;29;20507;-79
2022/10/22 22:44:17;;;;;;;8.32;3.35;;;;;;;15.15;70.74;96823.81;4900178;29;20044;-79
2022/10/22 22:46:47;;;;;;;6.35;3.50;;;;;;;15.13;70.70;96831.91;4906470;29;20550;-79
2022/10/22 22:49:16;;;;;;;5.82;3.05;;;;;;;15.14;71.02;96838.75;4904691;29;20570;-79
2022/10/22 22:51:44;;;;;;;10.43;3.80;;;;;;;15.15;70.38;96834.31;4899742;29;20146;-79
2022/10/22 22:54:12;;;;;;;5.90;3.08;;;;;;;15.15;70.59;96835.13;4899088;29;20060;-79
2022/10/22 22:56:41;;;;;;;5.97;3.53;;;;;;;15.15;70.33;96840.41;4899000;29;20160;-79
2022/10/22 22:59:10;;;;;;;6.32;3.22;;;;;;;15.15;70.30;96840.41;4898655;29;20056;-79
2022/10/22 23:01:39;;;;;;;6.72;3.30;;;;;;;15.13;70.13;96845.03;4898771;29;20096;-78
2022/10/22 23:04:17;;;;;;;6.20;2.83;;;;;;;15.16;71.43;96846.44;4898680;29;20049;-79
2022/10/22 23:06:46;;;;;;;3.92;3.13;;;;;;;15.17;70.49;96846.22;4898937;29;20052;-79
2022/10/22 23:09:17;;;;;;;4.95;3.28;;;;;;;15.16;71.38;96847.25;4898430;29;20096;-79
2022/10/22 23:11:47;;;;;;;3.85;3.42;;;;;;;15.18;70.88;96849.69;4898472;29;20056;-79
2022/10/22 23:14:18;;;;;;;6.28;3.58;;;;;;;15.18;71.10;96855.75;4898626;29;20053;-79
2022/10/22 23:16:50;;;;;;;5.82;3.92;;;;;;;15.19;71.24;96852.09;4898533;29;20060;-79
2022/10/22 23:19:22;;;;;;;8.38;3.13;;;;;;;15.21;71.68;96846.63;4898411;29;20052;-79
2022/10/22 23:21:54;;;;;;;5.38;3.10;;;;;;;15.22;71.09;96850.91;4898403;29;20059;-79
2022/10/22 23:24:25;;;;;;;5.50;3.80;;;;;;;15.23;70.95;96848.03;4898410;29;20097;-79
2022/10/22 23:26:55;;;;;;;5.20;3.53;;;;;;;15.22;70.61;96838.56;4898276;29;20062;-79
2022/10/22 23:29:26;;;;;;;3.83;3.15;;;;;;;15.22;71.01;96832.50;4898299;29;20099;-79
2022/10/22 23:31:59;;;;;;;5.38;3.17;;;;;;;15.20;70.80;96837.16;4898148;29;20053;-79
2022/10/22 23:34:31;;;;;;;4.07;2.90;;;;;;;15.15;70.83;96829.88;4898055;29;20056;-79
2022/10/22 23:37:00;;;;;;;6.75;3.50;;;;;;;15.12;70.34;96832.91;4898618;29;20056;-79
2022/10/22 23:39:30;;;;;;;6.57;3.17;;;;;;;15.11;70.67;96828.69;4898216;29;20053;-79
2022/10/22 23:41:59;;;;;;;4.28;2.80;;;;;;;15.12;71.26;96827.66;4898134;29;20060;-79
2022/10/22 23:44:28;;;;;;;6.85;2.97;;;;;;;15.13;70.67;96825.81;4898110;29;20513;-79
2022/10/22 23:46:57;;;;;;;3.58;2.53;;;;;;;15.13;70.71;96820.56;4898035;29;20057;-79
2022/10/22 23:49:26;;;;;;;5.93;3.22;;;;;;;15.15;70.89;96818.53;4898117;29;20555;-79
2022/10/22 23:51:57;;;;;;;4.65;3.20;;;;;;;15.13;70.26;96821.41;4897933;29;20060;-79
2022/10/22 23:54:26;;;;;;;7.72;3.20;;;;;;;15.10;70.20;96816.53;4897756;29;20108;-79
2022/10/22 23:56:55;;;;;;;4.50;2.65;;;;;;;15.11;70.30;96814.72;4897789;29;20056;-79
2022/10/22 23:59:24;;;;;;;6.68;3.10;;;;;;;15.10;69.99;96823.63;4897240;29;20583;-79
